Terminal Aerodrome Forecast
Issued by NWS

Home | Current Version | Previous Version | Text Only | Print | Product List | Glossary On
Versions: 1 2 3 4 5 6 7 8 9 10 11 12 13 14 15
000
FTUS42 TJSJ 292300 RRA
TAFJBQ
TAF
TJBQ 292345Z 3000/3024 07004KT P6SM BKN060
     FM300300 11003KT P6SM FEW050
     FM301300 06013KT P6SM FEW030
     FM302300 10005KT P6SM SCT025 SCT060
      AMD NOT SKED 3002/3011=

USA.gov is the U.S. government's official web portal to all federal, state and local government web resources and services.